Terminal Aerodrome Forecast
Issued by NWS Rapid City, SD

Home | Current Version | Previous Version | Text Only | Print | Product List | Glossary On
Versions: 1 2 3 4 5 6 7 8 9 10 11 12 13 14 15 16 17 18 19 20 21 22 23 24
000
FTUS43 KUNR 210520
TAFRAP
TAF
KRAP 210520Z 2106/2206 32006KT P6SM SCT100
     FM211600 35018G28KT P6SM SKC
     FM212200 36015KT P6SM SKC
     FM220100 03010KT P6SM SKC=

USA.gov is the U.S. government's official web portal to all federal, state and local government web resources and services.